createdAt,value
2023-03-22T00:01:32.517Z,113.30
2023-03-22T00:03:25.597Z,114.10
2023-03-22T00:05:18.618Z,106.70
2023-03-22T00:07:11.669Z,112.00
2023-03-22T00:09:04.827Z,105.00
2023-03-22T00:10:57.777Z,108.60
2023-03-22T00:12:51.128Z,109.70
2023-03-22T00:14:44.282Z,108.90
2023-03-22T00:16:37.358Z,108.50
2023-03-22T00:18:30.481Z,107.50
2023-03-22T00:20:23.840Z,112.30
2023-03-22T00:22:16.890Z,109.50
2023-03-22T00:24:09.945Z,108.40
2023-03-22T00:26:02.996Z,100.20
2023-03-22T00:27:55.986Z,110.70
2023-03-22T00:29:48.991Z,100.50
2023-03-22T00:31:42.396Z,108.60
2023-03-22T00:33:36.646Z,103.70
2023-03-22T00:35:29.686Z,100.80
2023-03-22T00:37:22.730Z,95.00
2023-03-22T00:39:15.816Z,105.10
2023-03-22T00:41:12.581Z,109.00
2023-03-22T00:43:05.574Z,109.30
2023-03-22T00:44:58.517Z,102.00
2023-03-22T00:46:51.493Z,106.90
2023-03-22T00:48:45.338Z,107.00
2023-03-22T00:50:40.292Z,105.00
2023-03-22T00:52:33.691Z,110.40
2023-03-22T00:54:27.255Z,112.30
2023-03-22T00:56:23.123Z,107.80
2023-03-22T00:58:26.920Z,110.10
2023-03-22T01:00:20.545Z,108.60
2023-03-22T01:02:14.203Z,114.10
2023-03-22T01:04:07.253Z,104.50
2023-03-22T01:06:01.132Z,105.00
2023-03-22T01:07:55.132Z,105.30
2023-03-22T01:09:48.863Z,101.50
2023-03-22T01:11:43.243Z,107.50
2023-03-22T01:13:41.969Z,108.80
2023-03-22T01:15:35.693Z,108.10
2023-03-22T01:17:29.044Z,107.50
2023-03-22T01:19:21.993Z,103.80
2023-03-22T01:21:15.150Z,99.90
2023-03-22T01:23:08.312Z,106.10
2023-03-22T01:25:01.554Z,105.70
2023-03-22T01:26:54.735Z,109.10
2023-03-22T01:28:47.654Z,104.00
2023-03-22T01:30:41.176Z,110.60
2023-03-22T01:32:37.024Z,98.60
2023-03-22T01:34:31.415Z,105.10
2023-03-22T01:36:24.668Z,104.30
2023-03-22T01:38:17.927Z,105.40
2023-03-22T01:40:17.632Z,107.20
2023-03-22T01:42:14.623Z,103.90
2023-03-22T01:44:16.774Z,107.80
2023-03-22T01:46:18.330Z,96.70
2023-03-22T01:48:17.943Z,97.70
2023-03-22T01:50:11.662Z,100.20
2023-03-22T01:52:11.165Z,96.00
2023-03-22T01:54:34.827Z,102.20
2023-03-22T01:56:35.042Z,100.10
2023-03-22T02:00:24.641Z,95.50
2023-03-22T02:02:31.167Z,95.50
2023-03-22T02:04:35.887Z,92.00
2023-03-22T02:06:32.477Z,99.60
2023-03-22T02:08:33.197Z,107.50
2023-03-22T02:10:28.699Z,98.30
2023-03-22T02:12:37.427Z,100.90
2023-03-22T02:14:47.668Z,101.90
2023-03-22T02:17:02.530Z,102.50
2023-03-22T02:19:30.716Z,98.90
2023-03-22T02:21:42.700Z,98.50
2023-03-22T02:24:05.804Z,103.20
2023-03-22T02:26:11.405Z,94.80
2023-03-22T02:28:17.616Z,94.30
2023-03-22T02:30:19.723Z,97.90
2023-03-22T02:32:41.352Z,103.60
2023-03-22T02:34:54.058Z,97.60
2023-03-22T02:37:27.231Z,93.20
2023-03-22T02:39:30.546Z,97.40
2023-03-22T02:42:14.480Z,95.50
2023-03-22T02:44:28.111Z,92.40
2023-03-22T02:46:38.099Z,92.50
2023-03-22T02:49:01.872Z,99.40
2023-03-22T02:51:00.305Z,100.10
2023-03-22T02:55:26.344Z,92.20
2023-03-22T02:57:31.170Z,92.70
2023-03-22T02:59:26.879Z,93.50
2023-03-22T03:01:36.196Z,97.30
2023-03-22T03:03:32.137Z,92.20
2023-03-22T03:05:27.119Z,93.50
2023-03-22T03:07:24.736Z,91.20
2023-03-22T03:09:19.997Z,94.50
2023-03-22T03:11:13.044Z,98.50
2023-03-22T03:13:06.291Z,96.00
2023-03-22T03:14:59.343Z,96.10
2023-03-22T03:17:22.927Z,98.30
2023-03-22T03:19:27.427Z,93.20
2023-03-22T03:21:30.347Z,92.70
2023-03-22T03:23:43.744Z,91.40
2023-03-22T03:26:03.112Z,92.20
2023-03-22T03:28:10.159Z,95.60
2023-03-22T03:30:13.976Z,97.20
2023-03-22T03:32:19.229Z,92.50
2023-03-22T03:34:18.026Z,96.10
2023-03-22T03:36:16.085Z,103.00
2023-03-22T03:38:27.398Z,99.60
2023-03-22T03:40:25.568Z,100.90
2023-03-22T03:42:19.409Z,94.70
2023-03-22T03:44:13.882Z,104.40
2023-03-22T03:46:08.736Z,102.90
2023-03-22T03:48:06.641Z,95.00
2023-03-22T03:49:59.999Z,100.40
2023-03-22T03:51:55.823Z,100.70
2023-03-22T03:53:49.072Z,100.80
2023-03-22T03:55:42.943Z,101.90
2023-03-22T03:57:36.092Z,97.60
2023-03-22T03:59:29.244Z,101.30
2023-03-22T04:01:24.257Z,101.30
2023-03-22T04:03:38.900Z,100.20
2023-03-22T04:05:38.199Z,109.30
2023-03-22T04:07:31.963Z,106.50
2023-03-22T04:09:27.485Z,99.70
2023-03-22T04:11:22.876Z,101.10
2023-03-22T04:13:19.292Z,103.70
2023-03-22T04:15:13.179Z,100.90
2023-03-22T04:17:06.637Z,106.30
2023-03-22T04:18:59.687Z,96.70
2023-03-22T04:20:53.700Z,101.30
2023-03-22T04:22:49.054Z,108.40
2023-03-22T04:24:42.230Z,103.90
2023-03-22T04:26:35.988Z,107.20
2023-03-22T04:28:49.324Z,100.00
2023-03-22T04:30:45.864Z,114.60
2023-03-22T04:32:49.030Z,108.40
2023-03-22T04:34:43.103Z,99.80
2023-03-22T04:36:41.696Z,122.40
2023-03-22T04:38:41.908Z,135.40
2023-03-22T04:40:38.966Z,149.50
2023-03-22T04:42:36.810Z,129.30
2023-03-22T04:46:30.742Z,131.10
2023-03-22T04:48:29.680Z,150.70
2023-03-22T04:50:23.757Z,203.00
2023-03-22T04:52:19.369Z,177.20
2023-03-22T04:54:17.845Z,153.10
2023-03-22T04:56:13.865Z,137.50
2023-03-22T04:58:07.529Z,117.00
2023-03-22T05:00:06.725Z,111.90
2023-03-22T05:01:59.967Z,134.50
2023-03-22T05:03:54.258Z,125.30
2023-03-22T05:05:53.572Z,122.10
2023-03-22T05:07:47.125Z,110.90
2023-03-22T05:09:40.173Z,109.60
2023-03-22T05:11:34.041Z,241.50
2023-03-22T05:13:50.338Z,243.70
2023-03-22T05:15:43.392Z,137.40
2023-03-22T05:17:36.948Z,152.10
2023-03-22T05:19:30.714Z,120.30
2023-03-22T05:21:28.297Z,122.80
2023-03-22T05:25:18.185Z,102.90
2023-03-22T05:27:14.420Z,116.10
2023-03-22T05:29:11.842Z,113.30
2023-03-22T05:31:21.988Z,103.80
2023-03-22T05:33:22.052Z,114.50
2023-03-22T05:35:17.967Z,106.70
2023-03-22T05:37:16.933Z,114.20
2023-03-22T05:39:22.769Z,105.30
2023-03-22T05:41:16.533Z,120.00
2023-03-22T05:43:09.788Z,117.50
2023-03-22T05:45:03.661Z,129.70
2023-03-22T05:46:56.755Z,197.20
2023-03-22T05:49:05.941Z,130.00
2023-03-22T05:50:59.610Z,149.20
2023-03-22T05:52:54.601Z,190.20
2023-03-22T05:54:59.431Z,196.00
2023-03-22T05:56:55.281Z,134.10
2023-03-22T05:58:48.808Z,131.80
2023-03-22T06:00:43.294Z,114.90
2023-03-22T06:02:56.661Z,111.70
2023-03-22T06:04:52.230Z,107.80
2023-03-22T06:06:47.126Z,108.40
2023-03-22T06:08:53.280Z,97.30
2023-03-22T06:10:51.135Z,101.40
2023-03-22T06:12:44.206Z,98.30
2023-03-22T06:14:41.650Z,98.00
2023-03-22T06:19:05.049Z,92.40
2023-03-22T06:21:00.101Z,99.80
2023-03-22T06:22:53.904Z,98.20
2023-03-22T06:24:47.470Z,103.30
2023-03-22T06:26:44.195Z,97.00
2023-03-22T06:28:38.264Z,96.10
2023-03-22T06:30:31.555Z,95.20
2023-03-22T06:32:45.770Z,95.20
2023-03-22T06:34:41.069Z,81.10
2023-03-22T06:36:34.832Z,95.60
2023-03-22T06:38:43.981Z,90.50
2023-03-22T06:40:37.138Z,87.60
2023-03-22T06:42:31.078Z,85.70
2023-03-22T06:44:34.679Z,82.50
2023-03-22T06:46:38.377Z,79.30
2023-03-22T06:48:38.701Z,84.80
2023-03-22T06:50:38.374Z,86.30
2023-03-22T06:52:53.379Z,77.20
2023-03-22T06:54:46.599Z,86.80
2023-03-22T06:56:40.494Z,79.40
2023-03-22T06:58:33.646Z,73.40
2023-03-22T07:00:26.596Z,70.90
2023-03-22T07:02:19.648Z,78.50
2023-03-22T07:04:33.355Z,83.70
2023-03-22T07:06:26.657Z,84.80
2023-03-22T07:08:20.436Z,74.30
2023-03-22T07:10:15.720Z,72.80
2023-03-22T07:12:09.994Z,74.90
2023-03-22T07:14:03.989Z,71.90
2023-03-22T07:16:13.094Z,66.20
2023-03-22T07:18:12.346Z,64.90
2023-03-22T07:20:07.025Z,64.40
2023-03-22T07:22:00.267Z,67.00
2023-03-22T07:23:53.416Z,66.70
2023-03-22T07:25:48.222Z,66.60
2023-03-22T07:27:48.708Z,67.40
2023-03-22T07:29:41.849Z,71.20
2023-03-22T07:31:36.649Z,70.90
2023-03-22T07:33:33.330Z,66.60
2023-03-22T07:35:30.504Z,74.20
2023-03-22T07:37:24.831Z,67.70
2023-03-22T07:39:21.240Z,61.80
2023-03-22T07:41:14.497Z,60.70
2023-03-22T07:43:21.680Z,63.00
2023-03-22T07:45:35.830Z,59.80
2023-03-22T07:47:58.263Z,64.50
2023-03-22T07:50:14.360Z,61.00
2023-03-22T07:52:09.341Z,57.60
2023-03-22T07:54:03.192Z,56.20
2023-03-22T07:55:56.271Z,57.60
2023-03-22T07:57:49.323Z,60.50
2023-03-22T07:59:44.332Z,58.80
2023-03-22T08:01:38.654Z,58.80
2023-03-22T08:03:48.446Z,56.80
2023-03-22T08:05:54.804Z,56.90
2023-03-22T08:07:49.082Z,54.10
2023-03-22T08:09:42.942Z,55.70
2023-03-22T08:11:36.821Z,59.10
2023-03-22T08:13:30.690Z,51.90
2023-03-22T08:15:24.053Z,50.30
2023-03-22T08:17:19.103Z,86.30
2023-03-22T08:19:14.761Z,83.20
2023-03-22T08:21:08.578Z,69.80
2023-03-22T08:23:01.966Z,67.80
2023-03-22T08:25:18.300Z,70.40
2023-03-22T08:27:12.357Z,56.70
2023-03-22T08:31:13.902Z,91.40
2023-03-22T08:33:08.610Z,98.60
2023-03-22T08:35:01.679Z,79.30
2023-03-22T08:36:54.715Z,53.90
2023-03-22T08:38:49.611Z,45.90
2023-03-22T08:40:47.061Z,69.80
2023-03-22T08:42:40.707Z,47.50
2023-03-22T08:44:33.687Z,43.20
2023-03-22T08:46:27.638Z,44.00
2023-03-22T08:48:20.948Z,40.40
2023-03-22T08:50:35.001Z,41.40
2023-03-22T08:52:39.859Z,41.10
2023-03-22T08:54:44.583Z,39.60
2023-03-22T08:56:59.268Z,40.40
2023-03-22T08:59:21.998Z,37.30
2023-03-22T09:01:27.988Z,39.00
2023-03-22T09:03:28.288Z,40.70
2023-03-22T09:05:21.522Z,42.80
2023-03-22T09:07:14.679Z,38.80
2023-03-22T09:09:08.863Z,31.80
2023-03-22T09:11:03.031Z,36.60
2023-03-22T09:12:56.288Z,33.70
2023-03-22T09:14:50.156Z,37.20
2023-03-22T09:16:43.824Z,38.30
2023-03-22T09:18:38.389Z,41.70
2023-03-22T09:20:36.150Z,44.20
2023-03-22T09:22:30.140Z,35.10
2023-03-22T09:24:23.309Z,34.50
2023-03-22T09:26:19.013Z,32.30
2023-03-22T09:28:14.554Z,35.50
2023-03-22T09:30:08.688Z,36.00
2023-03-22T09:32:01.738Z,34.10
2023-03-22T09:33:57.658Z,32.20
2023-03-22T09:35:50.823Z,33.70
2023-03-22T09:37:45.702Z,31.40
2023-03-22T09:39:40.294Z,31.20
2023-03-22T09:41:46.412Z,31.20
2023-03-22T09:43:48.603Z,30.60
2023-03-22T09:45:46.604Z,27.10
2023-03-22T09:47:45.424Z,29.70
2023-03-22T09:49:52.968Z,27.50
2023-03-22T09:51:51.819Z,27.40
2023-03-22T09:53:44.898Z,27.20
2023-03-22T09:55:46.136Z,29.60
2023-03-22T09:57:39.900Z,31.40
2023-03-22T10:00:12.700Z,28.80
2023-03-22T10:02:26.766Z,27.90
2023-03-22T10:04:55.489Z,26.00
2023-03-22T10:07:00.034Z,28.10
2023-03-22T10:09:02.303Z,26.90
2023-03-22T10:10:55.374Z,27.50
2023-03-22T10:13:05.503Z,29.00
2023-03-22T10:15:16.154Z,26.20
2023-03-22T10:17:17.720Z,26.30
2023-03-22T10:19:22.040Z,25.60
2023-03-22T10:21:19.282Z,25.60
2023-03-22T10:23:22.185Z,25.60
2023-03-22T10:25:21.670Z,26.70
2023-03-22T10:29:30.494Z,28.00
2023-03-22T10:31:26.782Z,22.40
2023-03-22T10:33:34.620Z,26.60
2023-03-22T10:35:28.578Z,24.10
2023-03-22T10:37:26.769Z,22.80
2023-03-22T10:39:27.495Z,25.30
2023-03-22T10:41:24.448Z,21.90
2023-03-22T10:43:36.838Z,22.30
2023-03-22T10:45:34.082Z,22.30
2023-03-22T10:47:35.815Z,21.40
2023-03-22T10:49:35.666Z,21.00
2023-03-22T10:51:47.964Z,21.40
2023-03-22T10:53:46.830Z,22.50
2023-03-22T10:55:44.604Z,20.90
2023-03-22T10:57:39.401Z,41.60
2023-03-22T10:59:49.765Z,26.60
2023-03-22T11:01:45.202Z,22.80
2023-03-22T11:03:45.110Z,23.50
2023-03-22T11:05:38.815Z,20.80
2023-03-22T11:07:45.408Z,23.40
2023-03-22T11:09:38.456Z,24.90
2023-03-22T11:11:36.663Z,22.20
2023-03-22T11:15:27.547Z,22.10
2023-03-22T11:17:26.008Z,21.20
2023-03-22T11:19:26.664Z,21.40
2023-03-22T11:21:23.484Z,20.80
2023-03-22T11:23:18.291Z,21.90
2023-03-22T11:25:37.338Z,18.60
2023-03-22T11:27:33.490Z,20.40
2023-03-22T11:29:27.987Z,22.70
2023-03-22T11:31:21.426Z,20.90
2023-03-22T11:33:21.326Z,21.30
2023-03-22T11:35:17.849Z,21.70
2023-03-22T11:37:11.306Z,19.90
2023-03-22T11:39:08.038Z,21.10
2023-03-22T11:41:03.779Z,20.60
2023-03-22T11:43:18.956Z,22.60
2023-03-22T11:45:21.520Z,21.40
2023-03-22T11:47:14.515Z,20.70
2023-03-22T11:49:14.877Z,18.80
2023-03-22T11:51:15.922Z,19.50
2023-03-22T11:53:19.680Z,19.90
2023-03-22T11:55:14.459Z,21.40
2023-03-22T11:57:17.204Z,25.50
2023-03-22T11:59:28.050Z,27.00
2023-03-22T12:02:06.734Z,22.70
2023-03-22T12:04:07.875Z,20.70
2023-03-22T12:06:07.149Z,20.70
2023-03-22T12:08:10.517Z,17.80
2023-03-22T12:10:41.297Z,20.10
2023-03-22T12:12:44.203Z,24.00
2023-03-22T12:14:47.548Z,18.70
2023-03-22T12:16:54.996Z,21.70
2023-03-22T12:18:57.628Z,26.70
2023-03-22T12:20:56.502Z,22.10
2023-03-22T12:22:54.768Z,31.20
2023-03-22T12:24:48.493Z,26.20
2023-03-22T12:26:41.750Z,24.00
2023-03-22T12:28:42.940Z,23.60
2023-03-22T12:30:51.330Z,24.80
2023-03-22T12:32:50.133Z,21.20
2023-03-22T12:34:48.792Z,22.20
2023-03-22T12:36:48.274Z,24.90
2023-03-22T12:39:18.049Z,21.50
2023-03-22T12:41:15.946Z,18.50
2023-03-22T12:43:37.993Z,25.60
2023-03-22T12:45:36.156Z,18.40
2023-03-22T12:49:37.508Z,18.60
2023-03-22T12:51:30.870Z,31.30
2023-03-22T12:53:30.678Z,44.10
2023-03-22T12:55:29.871Z,36.50
2023-03-22T12:57:22.919Z,25.10
2023-03-22T12:59:20.309Z,23.50
2023-03-22T13:01:46.599Z,23.30
2023-03-22T13:03:47.947Z,26.00
2023-03-22T13:05:41.725Z,17.10
2023-03-22T13:07:52.389Z,18.80
2023-03-22T13:09:50.752Z,40.10
2023-03-22T13:12:03.156Z,48.10
2023-03-22T13:13:56.211Z,43.20
2023-03-22T13:16:15.399Z,46.90
2023-03-22T13:18:31.910Z,34.50
2023-03-22T13:20:28.228Z,20.20
2023-03-22T13:22:50.041Z,39.20
2023-03-22T13:25:08.641Z,33.20
2023-03-22T13:27:02.164Z,25.90
2023-03-22T13:28:59.100Z,36.20
2023-03-22T13:30:57.142Z,26.80
2023-03-22T13:32:57.130Z,23.90
2023-03-22T13:34:53.035Z,22.30
2023-03-22T13:36:51.815Z,19.80
2023-03-22T13:38:54.895Z,27.70
2023-03-22T13:41:03.594Z,27.30
2023-03-22T13:43:11.266Z,20.70
2023-03-22T13:45:09.496Z,17.40
2023-03-22T13:47:03.093Z,16.30
2023-03-22T13:49:02.091Z,17.10
2023-03-22T13:50:56.974Z,15.00
2023-03-22T13:53:02.002Z,16.00
2023-03-22T13:54:57.734Z,16.30
2023-03-22T13:56:57.383Z,20.40
2023-03-22T13:58:53.159Z,19.20
2023-03-22T14:00:53.084Z,18.00
2023-03-22T14:02:48.574Z,17.30
2023-03-22T14:04:47.321Z,18.00
2023-03-22T14:06:51.453Z,17.70
2023-03-22T14:08:47.966Z,16.20
2023-03-22T14:10:48.985Z,16.30
2023-03-22T14:12:48.024Z,18.40
2023-03-22T14:14:56.380Z,17.90
2023-03-22T14:16:59.697Z,18.60
2023-03-22T14:18:54.104Z,417.40
2023-03-22T14:20:52.519Z,194.80
